Morinville, Canada
Current Conditions -  °F | °C
As of 7:44 AM on Thursday 27 Nov 2014 (Local Time) from CYED Reporting Station
Light Snow Light Snow  
Wind Chill: -20°   Ceiling: 700
Heat Index: -11°   Visibility: 0.62mi
Dew Point: -13°   Wind: 17mph
Humidity: 85%   Direction: 60°ENE
Pressure: 29.98"   Gusts: NA
Location:  53.8°N, 113.65°W
Report Text: CYED 271444Z AUTO 06015KT 5/8SM -SN VV007 M11/M13 A2998
Loading
Personal Weather Stations






























Interactive Weather Map New forecast layout! Learn more

10-Day Weather Forecast

Advertisements
Track Severe Weather on mobile